Ride Results

Towitta Park (07-07-2013)
Ride distance: 80.0 km

Outcomes - Towitta Park (07-07-2013)
Division No. of Entries Retired / DNE Completed Withdrawn Ineligible V/O Percentage Completed
HW 5 - 5 - - - 100.00%
MW 13 - 11 - - 2 84.62%
LW 3 - 3 - - - 100.00%
JN 5 - 4 - - 1 80.00%
Totals 26 - 23 - - 3 88.46%
Results - Towitta Park (07-07-2013)
No. Rider Horse Place Time Leg Speeds Total
Km/Hr
H/R bpm
Heavyweight
311 Tarrant Smith Tarjo Ace of Hearts 1 6:01:00 12.9, 13.7 13.30 36, 47, 48 (Avg:47)
259 Colin Brown Spotless 2 6:23:00 12.7, 12.3 12.53 42, 50, 58 (Avg:54)
113 Rachael Barnett Shady 3 7:09:00 11.1, 11.2 11.19 38, 44, 55 (Avg:49)
188 Steve Ellis Playing With Fire 3 7:09:00 11.1, 11.2 11.19 36, 40, 50 (Avg:45)
310 Rob Vlaanderen Castlebar Djara 5 7:22:00 11.0, 10.7 10.86 36, 44, 48 (Avg:46)
Middleweight
44 Julie White Maringo 1 (BC) 5:01:00 16.3, 15.5 15.95 30, 50, 46 (Avg:48)
56 Jean Sims Codgers Creek Orion 2 5:29:00 14.0, 15.1 14.59 40, 36, 54 (Avg:45)
232 Jodie Luck Lindall Alabaska 3 5:59:00 12.7, 14.0 13.37 32, 48, 42 (Avg:45)
22 Bob Gurr Bindii bint Grevillea 4 6:00:00 12.8, 13.8 13.33 42, 46, 45 (Avg:45)
65 Kellie Newstead Brechenridge Talos 5 6:21:00 12.2, 12.9 12.60 44, 44, 48 (Avg:46)
70 Jil Bourton Narrawa Orion 6 6:24:00 12.7, 12.2 12.50 48, 46, 52 (Avg:49)
97 Tracy Brandon Sandine Dictator 7 7:21:00 10.3, 11.4 10.88 36, 42, 48 (Avg:45)
78 Tania Drever Talunga Park Byjaryja 8 7:22:00 11.0, 10.7 10.86 40, 42, 42 (Avg:42)
322 Cassandra McCormack BGW Xappeal 9 7:24:00 10.8, 10.7 10.81 36, 44, 56 (Avg:50)
245 Melissa Bright Meldana Kadeem 10 7:25:00 10.7, 10.8 10.79 32, 40, 48 (Avg:44)
301 Karren Carman Dyarah Park Gold Digger 10 7:25:00 11.0, 10.5 10.79 42, 50, 54 (Avg:52)
95 Stella Harbison Castlebar Sheko Heart Rate L2 0:00:00 12.2, 12.9 - 32, 46, 70 (Avg:58)
149 Bob Masters Sharwood Sinai Lame L2 0:00:00 13.9, 15.2 - 30, 42, 48 (Avg:45)
Lightweight
21 Cheryl Bullock Brechenridge Attitude 1 (BC) 5:29:00 14.0, 15.1 14.59 42, 45, 46 (Avg:45)
63 Deanne Barth Narrawa Ace 2 6:50:00 10.6, 13.0 11.71 36, 48, 50 (Avg:49)
288 Fiona Shearman Tom-May Mel-Bar Prince 3 7:09:00 11.1, 11.2 11.19 36, 42, 50 (Avg:46)
Junior
255 Alannah Luck Abbeywood Angel 1 5:59:00 12.7, 14.0 13.37 40, 48, 42 (Avg:45)
69 Ayla Barth Twinmills Finnigan 2 6:50:00 10.6, 13.0 11.71 36, 50, 58 (Avg:54)
64 Susanne Wells Ningadoo Kingdom 3 7:22:00 11.0, 10.7 10.86 36, 46, 45 (Avg:45)
298 Jayna Bright Nihal Contessa 4 7:25:00 10.7, 10.8 10.79 36, 42, 48 (Avg:45)
261 Kelsey Bright Veloce Divine Lame L2 0:00:00 12.7, 14.0 - 45, 48, 47 (Avg:47)